createdAt,value
2017-12-14T00:02:09.810Z,9.55
2017-12-14T00:04:36.191Z,9.54
2017-12-14T00:07:02.640Z,9.60
2017-12-14T00:09:29.063Z,9.54
2017-12-14T00:11:55.421Z,9.63
2017-12-14T00:14:21.822Z,9.68
2017-12-14T00:16:48.257Z,9.73
2017-12-14T00:19:14.711Z,9.71
2017-12-14T00:21:41.127Z,9.72
2017-12-14T00:24:07.561Z,9.69
2017-12-14T00:26:34.097Z,9.57
2017-12-14T00:29:00.534Z,9.72
2017-12-14T00:31:26.941Z,9.81
2017-12-14T00:33:53.400Z,9.83
2017-12-14T00:36:19.836Z,9.80
2017-12-14T00:38:46.270Z,9.61
2017-12-14T00:41:12.705Z,9.77
2017-12-14T00:43:39.139Z,9.75
2017-12-14T00:46:05.575Z,9.72
2017-12-14T00:48:31.942Z,9.70
2017-12-14T00:50:58.342Z,9.64
2017-12-14T00:53:24.881Z,9.61
2017-12-14T00:55:51.314Z,9.58
2017-12-14T00:58:17.746Z,9.55
2017-12-14T01:00:44.077Z,9.37
2017-12-14T01:03:10.516Z,9.50
2017-12-14T01:05:36.948Z,9.54
2017-12-14T01:08:03.386Z,9.55
2017-12-14T01:10:29.818Z,9.60
2017-12-14T01:12:56.157Z,9.57
2017-12-14T01:15:22.584Z,9.58
2017-12-14T01:17:49.020Z,9.51
2017-12-14T01:20:15.454Z,9.49
2017-12-14T01:22:41.817Z,9.44
2017-12-14T01:25:08.220Z,9.44
2017-12-14T01:27:34.859Z,9.34
2017-12-14T01:30:01.294Z,9.28
2017-12-14T01:32:27.728Z,9.23
2017-12-14T01:34:54.163Z,9.22
2017-12-14T01:37:20.598Z,9.17
2017-12-14T01:39:47.031Z,9.13
2017-12-14T01:42:13.406Z,9.10
2017-12-14T01:44:39.783Z,9.06
2017-12-14T01:47:06.234Z,9.03
2017-12-14T01:49:32.975Z,9.02
2017-12-14T01:51:59.410Z,9.01
2017-12-14T01:54:25.827Z,8.96
2017-12-14T01:56:52.280Z,8.92
2017-12-14T01:59:18.816Z,8.88
2017-12-14T02:01:45.251Z,8.85
2017-12-14T02:04:11.686Z,8.85
2017-12-14T02:06:38.123Z,8.91
2017-12-14T02:09:04.555Z,8.89
2017-12-14T02:11:30.886Z,8.82
2017-12-14T02:13:57.321Z,8.78
2017-12-14T02:16:23.755Z,8.81
2017-12-14T02:18:50.088Z,8.79
2017-12-14T02:21:16.523Z,8.76
2017-12-14T02:23:42.960Z,8.75
2017-12-14T02:26:09.292Z,8.83
2017-12-14T02:28:35.623Z,8.80
2017-12-14T02:31:02.060Z,8.75
2017-12-14T02:33:28.512Z,8.70
2017-12-14T02:35:54.925Z,8.65
2017-12-14T02:38:21.359Z,8.67
2017-12-14T02:40:47.861Z,8.64
2017-12-14T02:43:14.161Z,8.59
2017-12-14T02:45:40.567Z,8.53
2017-12-14T02:48:06.896Z,8.55
2017-12-14T02:50:33.330Z,8.55
2017-12-14T02:52:59.741Z,8.53
2017-12-14T02:55:26.053Z,8.55
2017-12-14T02:57:52.428Z,8.57
2017-12-14T03:00:18.863Z,8.53
2017-12-14T03:02:45.260Z,8.55
2017-12-14T03:05:11.730Z,8.54
2017-12-14T03:07:38.269Z,8.54
2017-12-14T03:10:04.703Z,8.49
2017-12-14T03:12:31.137Z,8.47
2017-12-14T03:14:57.572Z,8.42
2017-12-14T03:17:25.012Z,8.42
2017-12-14T03:19:51.466Z,8.40
2017-12-14T03:22:17.901Z,8.38
2017-12-14T03:24:44.338Z,8.38
2017-12-14T03:27:10.813Z,8.36
2017-12-14T03:29:37.174Z,8.31
2017-12-14T03:32:03.632Z,8.27
2017-12-14T03:34:30.072Z,8.29
2017-12-14T03:36:56.507Z,8.30
2017-12-14T03:39:22.942Z,8.27
2017-12-14T03:41:49.378Z,8.34
2017-12-14T03:44:15.709Z,8.36
2017-12-14T03:46:42.143Z,8.37
2017-12-14T03:49:08.578Z,8.33
2017-12-14T03:51:34.979Z,8.31
2017-12-14T03:54:01.447Z,8.31
2017-12-14T03:56:27.885Z,8.20
2017-12-14T03:58:54.317Z,8.36
2017-12-14T04:01:20.749Z,8.39
2017-12-14T04:03:47.085Z,8.42
2017-12-14T04:06:13.447Z,8.43
2017-12-14T04:08:39.800Z,8.43
2017-12-14T04:11:06.108Z,8.40
2017-12-14T04:13:32.620Z,8.28
2017-12-14T04:15:58.949Z,8.46
2017-12-14T04:18:25.388Z,8.49
2017-12-14T04:20:51.819Z,8.52
2017-12-14T04:23:18.253Z,8.54
2017-12-14T04:25:44.585Z,8.56
2017-12-14T04:28:10.913Z,8.58
2017-12-14T04:30:37.352Z,8.59
2017-12-14T04:33:03.787Z,8.62
2017-12-14T04:35:30.119Z,8.63
2017-12-14T04:37:56.432Z,8.64
2017-12-14T04:40:22.885Z,8.59
2017-12-14T04:42:49.221Z,8.62
2017-12-14T04:45:15.652Z,8.61
2017-12-14T04:47:41.985Z,8.56
2017-12-14T04:50:08.426Z,8.55
2017-12-14T04:52:34.751Z,8.48
2017-12-14T04:55:01.083Z,8.48
2017-12-14T04:57:27.448Z,8.44
2017-12-14T04:59:53.851Z,8.42
2017-12-14T05:02:20.285Z,8.43
2017-12-14T05:04:46.719Z,8.47
2017-12-14T05:07:13.154Z,8.45
2017-12-14T05:09:39.530Z,8.45
2017-12-14T05:12:05.921Z,8.46
2017-12-14T05:14:32.356Z,8.42
2017-12-14T05:16:58.894Z,8.41
2017-12-14T05:19:25.329Z,8.43
2017-12-14T05:21:51.693Z,8.46
2017-12-14T05:24:18.029Z,8.49
2017-12-14T05:26:44.425Z,8.50
2017-12-14T05:29:10.861Z,8.51
2017-12-14T05:31:37.189Z,8.50
2017-12-14T05:34:03.653Z,8.46
2017-12-14T05:36:30.069Z,8.36
2017-12-14T05:38:56.533Z,8.32
2017-12-14T05:41:22.932Z,8.32
2017-12-14T05:43:49.366Z,8.36
2017-12-14T05:46:15.801Z,8.40
2017-12-14T05:48:42.272Z,8.39
2017-12-14T05:51:08.600Z,8.37
2017-12-14T05:53:34.938Z,8.35
2017-12-14T05:56:01.307Z,8.29
2017-12-14T05:58:27.750Z,8.12
2017-12-14T06:00:54.101Z,8.18
2017-12-14T06:03:20.535Z,8.13
2017-12-14T06:05:46.970Z,8.07
2017-12-14T06:08:13.450Z,8.00
2017-12-14T06:10:40.608Z,7.91
2017-12-14T06:13:07.093Z,7.85
2017-12-14T06:15:33.632Z,7.84
2017-12-14T06:18:00.010Z,7.80
2017-12-14T06:20:26.355Z,7.82
2017-12-14T06:22:52.822Z,7.84
2017-12-14T06:25:19.268Z,7.85
2017-12-14T06:27:45.701Z,7.82
2017-12-14T06:30:12.138Z,7.81
2017-12-14T06:32:38.576Z,7.79
2017-12-14T06:35:05.109Z,7.76
2017-12-14T06:37:31.644Z,7.79
2017-12-14T06:39:58.013Z,7.81
2017-12-14T06:42:24.485Z,7.82
2017-12-14T06:44:51.255Z,7.81
2017-12-14T06:47:17.689Z,7.84
2017-12-14T06:49:44.124Z,7.93
2017-12-14T06:52:10.560Z,7.91
2017-12-14T06:54:36.995Z,8.17
2017-12-14T06:57:03.313Z,8.23
2017-12-14T06:59:29.760Z,8.33
2017-12-14T07:01:56.120Z,8.46
2017-12-14T07:04:22.528Z,8.59
2017-12-14T07:09:21.335Z,8.88
2017-12-14T07:11:47.770Z,8.97
2017-12-14T07:14:14.209Z,9.13
2017-12-14T07:16:41.051Z,9.22
2017-12-14T07:19:07.381Z,9.31
2017-12-14T07:21:33.918Z,9.42
2017-12-14T07:24:00.727Z,9.51
2017-12-14T07:26:27.195Z,9.60
2017-12-14T07:28:53.564Z,9.70
2017-12-14T07:31:20.374Z,9.83
2017-12-14T07:33:46.810Z,10.01
2017-12-14T07:36:13.244Z,10.07
2017-12-14T07:38:40.125Z,10.34
2017-12-14T07:41:06.565Z,10.43
2017-12-14T07:43:32.962Z,10.49
2017-12-14T07:45:59.595Z,10.38
2017-12-14T07:48:25.968Z,10.40
2017-12-14T07:50:52.540Z,10.49
2017-12-14T08:05:56.968Z,10.64
2017-12-14T08:08:23.360Z,10.71
2017-12-14T08:10:49.784Z,10.76
2017-12-14T08:13:16.593Z,10.77
2017-12-14T08:15:42.930Z,10.79
2017-12-14T08:18:09.310Z,10.87
2017-12-14T08:20:35.895Z,10.93
2017-12-14T08:23:02.330Z,10.98
2017-12-14T08:25:28.763Z,11.08
2017-12-14T08:27:55.813Z,11.02
2017-12-14T08:30:23.170Z,11.01
2017-12-14T08:32:49.653Z,11.20
2017-12-14T08:35:16.963Z,11.24
2017-12-14T08:37:43.806Z,11.35
2017-12-14T08:40:10.194Z,11.41
2017-12-14T08:42:36.570Z,11.16
2017-12-14T08:45:03.006Z,11.60
2017-12-14T08:47:29.440Z,11.68
2017-12-14T08:49:55.878Z,11.74
2017-12-14T08:52:22.411Z,11.84
2017-12-14T08:54:49.142Z,11.86
2017-12-14T08:57:15.602Z,11.86
2017-12-14T08:59:42.574Z,12.00
2017-12-14T09:02:09.094Z,12.10
2017-12-14T09:04:35.441Z,12.20
2017-12-14T09:07:02.147Z,12.27
2017-12-14T09:09:28.581Z,12.34
2017-12-14T09:11:55.117Z,12.35
2017-12-14T09:14:21.496Z,12.50
2017-12-14T09:16:47.971Z,12.59
2017-12-14T09:19:14.423Z,12.64
2017-12-14T09:21:40.854Z,12.67
2017-12-14T09:24:07.224Z,12.71
2017-12-14T09:26:34.069Z,12.81
2017-12-14T09:29:00.468Z,12.89
2017-12-14T09:31:26.901Z,12.94
2017-12-14T09:33:53.368Z,13.02
2017-12-14T09:36:20.061Z,13.02
2017-12-14T09:38:46.589Z,13.03
2017-12-14T09:41:13.152Z,13.13
2017-12-14T09:43:39.962Z,13.22
2017-12-14T09:46:06.841Z,13.31
2017-12-14T09:48:33.389Z,13.37
2017-12-14T09:51:00.323Z,13.40
2017-12-14T09:53:26.694Z,13.36
2017-12-14T09:55:53.192Z,13.54
2017-12-14T09:58:19.934Z,13.59
2017-12-14T10:00:46.264Z,13.65
2017-12-14T10:03:12.637Z,13.71
2017-12-14T10:05:39.340Z,13.78
2017-12-14T10:08:05.776Z,13.64
2017-12-14T10:10:32.352Z,13.85
2017-12-14T10:12:59.046Z,13.96
2017-12-14T10:15:25.595Z,13.85
2017-12-14T10:17:52.077Z,14.08
2017-12-14T10:20:18.873Z,14.13
2017-12-14T10:22:45.433Z,14.14
2017-12-14T10:25:11.932Z,14.14
2017-12-14T10:27:38.997Z,14.15
2017-12-14T10:30:05.461Z,14.04
2017-12-14T10:32:32.171Z,14.24
2017-12-14T10:34:59.143Z,14.25
2017-12-14T10:37:26.473Z,14.20
2017-12-14T10:39:53.087Z,14.29
2017-12-14T10:42:20.059Z,14.34
2017-12-14T10:44:46.494Z,14.34
2017-12-14T10:47:12.886Z,14.35
2017-12-14T10:49:39.563Z,14.40
2017-12-14T10:52:06.230Z,14.49
2017-12-14T10:54:32.641Z,14.55
2017-12-14T10:56:59.281Z,14.63
2017-12-14T10:59:25.716Z,14.68
2017-12-14T11:01:52.558Z,14.74
2017-12-14T11:04:19.199Z,14.93
2017-12-14T11:06:45.633Z,14.95
2017-12-14T11:09:12.069Z,14.99
2017-12-14T11:11:38.709Z,15.16
2017-12-14T11:14:05.450Z,15.40
2017-12-14T11:16:32.028Z,15.70
2017-12-14T11:18:59.037Z,15.97
2017-12-14T11:21:25.573Z,16.13
2017-12-14T11:23:52.841Z,16.46
2017-12-14T11:26:19.776Z,16.58
2017-12-14T11:28:46.417Z,16.61
2017-12-14T11:31:12.950Z,16.92
2017-12-14T11:33:39.724Z,17.24
2017-12-14T11:36:06.126Z,17.60
2017-12-14T11:38:32.562Z,17.96
2017-12-14T11:41:00.326Z,18.36
2017-12-14T11:43:26.699Z,18.78
2017-12-14T11:45:53.199Z,19.11
2017-12-14T11:48:20.083Z,19.43
2017-12-14T11:50:46.647Z,19.49
2017-12-14T11:53:13.114Z,19.60
2017-12-14T11:55:40.060Z,19.90
2017-12-14T11:58:06.576Z,20.09
2017-12-14T12:00:33.253Z,19.95
2017-12-14T12:03:00.312Z,19.94
2017-12-14T12:05:26.776Z,20.24
2017-12-14T12:07:53.363Z,20.57
2017-12-14T12:10:20.018Z,20.64
2017-12-14T12:12:46.506Z,20.67
2017-12-14T12:15:13.248Z,20.94
2017-12-14T12:17:40.094Z,21.21
2017-12-14T12:20:06.560Z,21.30
2017-12-14T12:22:33.300Z,21.27
2017-12-14T12:24:59.920Z,21.43
2017-12-14T12:27:26.363Z,21.65
2017-12-14T12:29:53.029Z,22.11
2017-12-14T12:32:20.067Z,22.36
2017-12-14T12:34:46.620Z,22.33
2017-12-14T12:37:13.342Z,22.37
2017-12-14T12:39:40.367Z,22.33
2017-12-14T12:42:07.032Z,22.24
2017-12-14T12:44:33.609Z,22.36
2017-12-14T12:47:00.381Z,22.34
2017-12-14T12:49:26.846Z,22.27
2017-12-14T12:51:53.382Z,22.14
2017-12-14T12:54:20.227Z,22.02
2017-12-14T12:56:46.662Z,21.74
2017-12-14T12:59:13.107Z,21.24
2017-12-14T13:01:40.070Z,21.02
2017-12-14T13:04:06.431Z,20.82
2017-12-14T13:06:33.015Z,20.83
2017-12-14T13:08:59.654Z,20.89
2017-12-14T13:11:26.089Z,20.82
2017-12-14T13:13:52.524Z,20.69
2017-12-14T13:16:19.061Z,20.36
2017-12-14T13:18:45.562Z,20.11
2017-12-14T13:21:12.033Z,19.92
2017-12-14T13:23:38.467Z,19.68
2017-12-14T13:26:04.900Z,19.43
2017-12-14T13:28:31.340Z,19.25
2017-12-14T13:30:57.851Z,19.06
2017-12-14T13:33:24.569Z,18.81
2017-12-14T13:35:50.995Z,18.48
2017-12-14T13:38:17.431Z,18.18
2017-12-14T13:40:44.430Z,17.88
2017-12-14T13:43:10.868Z,17.86
2017-12-14T13:45:37.300Z,17.78
2017-12-14T13:48:04.349Z,17.80
2017-12-14T13:50:30.885Z,18.05
2017-12-14T13:52:57.321Z,18.58
2017-12-14T13:55:24.062Z,19.16
2017-12-14T13:57:50.497Z,19.78
2017-12-14T14:00:17.034Z,20.32
2017-12-14T14:02:43.674Z,20.52
2017-12-14T14:05:10.108Z,20.16
2017-12-14T14:07:36.615Z,19.72
2017-12-14T14:10:03.202Z,19.26
2017-12-14T14:12:29.721Z,18.75
2017-12-14T14:14:56.052Z,18.25
2017-12-14T14:17:22.492Z,17.81
2017-12-14T14:19:49.433Z,17.38
2017-12-14T14:22:15.970Z,17.01
2017-12-14T14:24:42.389Z,16.69
2017-12-14T14:27:09.354Z,16.42
2017-12-14T14:29:35.788Z,16.16
2017-12-14T14:32:02.325Z,15.84
2017-12-14T14:34:29.330Z,15.64
2017-12-14T14:36:55.908Z,15.37
2017-12-14T14:39:22.344Z,15.07
2017-12-14T14:41:48.983Z,14.93
2017-12-14T14:44:15.418Z,14.81
2017-12-14T14:46:41.852Z,14.64
2017-12-14T14:49:08.496Z,14.49
2017-12-14T14:51:34.999Z,14.38
2017-12-14T14:54:01.393Z,14.28
2017-12-14T14:56:28.067Z,14.18
2017-12-14T14:58:54.435Z,14.05
2017-12-14T15:01:20.971Z,13.78
2017-12-14T15:03:47.616Z,13.94
2017-12-14T15:06:14.016Z,13.91
2017-12-14T15:08:40.480Z,13.82
2017-12-14T15:11:07.122Z,13.76
2017-12-14T15:13:33.484Z,13.75
2017-12-14T15:15:59.857Z,13.70
2017-12-14T15:18:26.300Z,13.64
2017-12-14T15:20:53.063Z,13.39
2017-12-14T15:23:19.455Z,13.51
2017-12-14T15:25:45.933Z,13.44
2017-12-14T15:28:13.668Z,13.41
2017-12-14T15:30:40.064Z,13.36
2017-12-14T15:33:06.464Z,13.31
2017-12-14T15:35:32.796Z,13.20
2017-12-14T15:37:59.214Z,13.15
2017-12-14T15:40:25.657Z,13.08
2017-12-14T15:42:52.920Z,12.96
2017-12-14T15:45:19.289Z,12.88
2017-12-14T15:50:11.920Z,12.70
2017-12-14T15:52:38.351Z,12.65
2017-12-14T15:55:04.786Z,12.58
2017-12-14T15:57:31.203Z,12.59
2017-12-14T15:59:57.620Z,12.58
2017-12-14T16:02:24.006Z,12.53
2017-12-14T16:04:50.935Z,12.51
2017-12-14T16:07:17.368Z,12.59
2017-12-14T16:09:43.804Z,12.65
2017-12-14T16:12:10.172Z,12.63
2017-12-14T16:14:36.572Z,12.62
2017-12-14T16:17:03.008Z,12.59
2017-12-14T16:19:29.372Z,12.49
2017-12-14T16:21:55.852Z,12.47
2017-12-14T16:24:22.394Z,12.62
2017-12-14T16:26:48.845Z,12.67
2017-12-14T16:29:15.280Z,12.64
2017-12-14T16:31:41.715Z,12.66
2017-12-14T16:34:08.040Z,12.62
2017-12-14T16:36:34.482Z,12.58
2017-12-14T16:39:00.916Z,12.59
2017-12-14T16:41:27.290Z,12.57
2017-12-14T16:43:53.688Z,12.50
2017-12-14T16:46:20.026Z,12.49
2017-12-14T16:48:46.449Z,12.42
2017-12-14T16:51:12.936Z,12.33
2017-12-14T16:53:39.255Z,12.29
2017-12-14T16:56:05.653Z,12.24
2017-12-14T16:58:32.088Z,12.18
2017-12-14T17:00:58.521Z,12.13
2017-12-14T17:03:24.892Z,12.03
2017-12-14T17:05:51.288Z,11.93
2017-12-14T17:08:17.723Z,11.82
2017-12-14T17:10:44.055Z,11.73
2017-12-14T17:13:10.592Z,11.62
2017-12-14T17:15:36.962Z,11.62
2017-12-14T17:18:03.316Z,11.57
2017-12-14T17:20:29.793Z,11.48
2017-12-14T17:22:56.944Z,11.35
2017-12-14T17:25:23.404Z,11.19
2017-12-14T17:27:49.814Z,11.10
2017-12-14T17:30:16.249Z,10.92
2017-12-14T17:32:42.683Z,11.02
2017-12-14T17:35:09.000Z,10.94
2017-12-14T17:37:35.398Z,10.87
2017-12-14T17:40:02.602Z,10.80
2017-12-14T17:42:29.026Z,10.74
2017-12-14T17:44:55.402Z,10.75
2017-12-14T17:47:21.736Z,10.73
2017-12-14T17:49:48.135Z,10.65
2017-12-14T17:52:14.570Z,10.63
2017-12-14T17:54:41.006Z,10.56
2017-12-14T17:57:08.055Z,10.54
2017-12-14T17:59:34.489Z,10.53
2017-12-14T18:02:00.924Z,10.51
2017-12-14T18:04:27.362Z,10.51
2017-12-14T18:06:53.792Z,10.54
2017-12-14T18:09:20.226Z,10.54
2017-12-14T18:11:46.661Z,10.55
2017-12-14T18:14:13.800Z,10.57
2017-12-14T18:16:40.181Z,10.66
2017-12-14T18:19:06.583Z,10.78
2017-12-14T18:21:33.014Z,10.77
2017-12-14T18:23:59.385Z,10.72
2017-12-14T18:26:25.740Z,10.63
2017-12-14T18:28:52.113Z,10.53
2017-12-14T18:31:19.373Z,10.51
2017-12-14T18:33:45.692Z,10.47
2017-12-14T18:36:12.133Z,10.42
2017-12-14T18:38:38.568Z,10.35
2017-12-14T18:41:05.004Z,10.44
2017-12-14T18:43:31.372Z,10.42
2017-12-14T18:45:57.770Z,10.37
2017-12-14T18:48:24.856Z,10.30
2017-12-14T18:50:51.254Z,10.23
2017-12-14T18:53:17.689Z,10.21
2017-12-14T18:55:44.022Z,10.15
2017-12-14T18:58:10.356Z,10.10
2017-12-14T19:00:36.788Z,10.03
2017-12-14T19:03:03.223Z,9.94
2017-12-14T19:05:30.313Z,9.87
2017-12-14T19:07:56.808Z,9.80
2017-12-14T19:10:23.243Z,9.69
2017-12-14T19:12:53.313Z,9.50
2017-12-14T19:15:19.696Z,9.53
2017-12-14T19:17:46.130Z,9.45
2017-12-14T19:20:12.584Z,9.42
2017-12-14T19:22:39.000Z,9.35
2017-12-14T19:25:05.377Z,9.32
2017-12-14T19:27:31.767Z,9.26
2017-12-14T19:29:58.202Z,9.20
2017-12-14T19:32:24.534Z,9.10
2017-12-14T19:34:50.901Z,9.07
2017-12-14T19:37:17.232Z,9.04
2017-12-14T19:39:43.634Z,9.05
2017-12-14T19:42:10.069Z,9.05
2017-12-14T19:44:36.502Z,9.05
2017-12-14T19:47:02.940Z,8.98
2017-12-14T19:49:29.404Z,8.96
2017-12-14T19:51:55.807Z,8.96
2017-12-14T19:54:22.245Z,8.86
2017-12-14T19:56:48.678Z,8.80
2017-12-14T19:59:15.111Z,8.73
2017-12-14T20:01:41.461Z,8.71
2017-12-14T20:04:07.878Z,8.60
2017-12-14T20:06:34.241Z,8.56
2017-12-14T20:09:00.644Z,8.51
2017-12-14T20:11:26.980Z,8.46
2017-12-14T20:13:54.229Z,8.43
2017-12-14T20:16:20.781Z,8.43
2017-12-14T20:18:47.201Z,8.34
2017-12-14T20:21:13.655Z,8.32
2017-12-14T20:23:40.001Z,8.39
2017-12-14T20:26:06.403Z,8.43
2017-12-14T20:28:32.838Z,8.45
2017-12-14T20:31:00.091Z,8.47
2017-12-14T20:33:26.509Z,8.43
2017-12-14T20:35:52.959Z,8.33
2017-12-14T20:38:19.396Z,8.31
2017-12-14T20:40:45.833Z,8.24
2017-12-14T20:43:12.264Z,8.21
2017-12-14T20:45:38.734Z,8.20
2017-12-14T20:48:05.954Z,8.16
2017-12-14T20:50:32.388Z,8.08
2017-12-14T20:52:58.720Z,8.07
2017-12-14T20:55:25.076Z,7.99
2017-12-14T20:57:51.590Z,7.74
2017-12-14T21:00:18.025Z,7.90
2017-12-14T21:02:44.462Z,7.82
2017-12-14T21:05:11.716Z,7.80
2017-12-14T21:07:38.024Z,7.76
2017-12-14T21:10:04.412Z,7.60
2017-12-14T21:12:30.809Z,7.48
2017-12-14T21:14:57.246Z,7.53
2017-12-14T21:17:23.613Z,7.51
2017-12-14T21:19:50.013Z,7.43
2017-12-14T21:22:17.269Z,7.38
2017-12-14T21:24:43.702Z,7.41
2017-12-14T21:27:10.138Z,7.41
2017-12-14T21:29:36.571Z,7.37
2017-12-14T21:32:03.006Z,7.33
2017-12-14T21:34:29.376Z,7.23
2017-12-14T21:36:55.755Z,7.18
2017-12-14T21:39:23.027Z,7.10
2017-12-14T21:41:49.388Z,7.04
2017-12-14T21:44:15.792Z,7.08
2017-12-14T21:46:42.258Z,7.08
2017-12-14T21:49:08.681Z,7.05
2017-12-14T21:51:35.025Z,7.09
2017-12-14T21:54:01.401Z,7.13
2017-12-14T21:56:28.478Z,7.31
2017-12-14T21:58:54.918Z,7.42
2017-12-14T22:01:21.347Z,7.49
2017-12-14T22:03:47.781Z,7.55
2017-12-14T22:06:14.215Z,7.61
2017-12-14T22:08:40.601Z,7.68
2017-12-14T22:11:06.984Z,7.77
2017-12-14T22:13:34.236Z,7.80
2017-12-14T22:16:00.671Z,7.85
2017-12-14T22:18:27.105Z,7.89
2017-12-14T22:20:53.540Z,7.80
2017-12-14T22:23:19.974Z,7.83
2017-12-14T22:25:46.337Z,7.74
2017-12-14T22:28:12.742Z,7.63
2017-12-14T22:30:39.924Z,7.43
2017-12-14T22:33:06.299Z,7.49
2017-12-14T22:35:32.763Z,7.36
2017-12-14T22:37:59.130Z,7.32
2017-12-14T22:40:25.529Z,7.26
2017-12-14T22:42:51.964Z,7.23
2017-12-14T22:45:18.400Z,7.19
2017-12-14T22:47:45.551Z,7.13
2017-12-14T22:50:11.992Z,7.07
2017-12-14T22:52:38.422Z,7.04
2017-12-14T22:55:04.756Z,7.02
2017-12-14T22:57:31.084Z,6.91
2017-12-14T22:59:57.489Z,6.90
2017-12-14T23:02:23.953Z,6.91
2017-12-14T23:04:51.210Z,6.91
2017-12-14T23:07:17.646Z,6.91
2017-12-14T23:09:44.078Z,6.93
2017-12-14T23:12:10.445Z,6.99
2017-12-14T23:14:36.847Z,7.01
2017-12-14T23:17:03.279Z,7.02
2017-12-14T23:19:29.713Z,7.03
2017-12-14T23:21:56.966Z,7.10
2017-12-14T23:24:23.377Z,7.17
2017-12-14T23:26:49.831Z,7.09
2017-12-14T23:29:16.201Z,6.98
2017-12-14T23:31:42.604Z,6.84
2017-12-14T23:34:09.038Z,6.80
2017-12-14T23:36:35.421Z,6.77
2017-12-14T23:39:02.624Z,6.71
2017-12-14T23:41:29.058Z,6.72
2017-12-14T23:43:55.595Z,6.75
2017-12-14T23:46:22.031Z,6.68
2017-12-14T23:48:48.463Z,6.55
2017-12-14T23:51:14.898Z,6.50
2017-12-14T23:53:41.233Z,6.52
2017-12-14T23:56:08.588Z,6.47
2017-12-14T23:58:35.022Z,6.32
